Time;durP1;ratioP1;P1;durP2;ratioP2;P2;SDS_P1;SDS_P2;PMS_P1;PMS_P2;Temp;Humidity;BMP_temperature;BMP_pressure;BME280_temperature;BME280_humidity;BME280_pressure;Samples;Min_cycle;Max_cycle;Signal;HPM_P1;HPM_P2
2024/01/23 00:00:32;;;;;;;14.63;3.60;;;;;;;;;;4976527;28;20131;-78
2024/01/23 00:02:59;;;;;;;17.67;3.95;;;;;;;;;;4977043;28;20385;-78
2024/01/23 00:05:27;;;;;;;15.20;3.83;;;;;;;;;;4976224;28;20062;-79
2024/01/23 00:07:54;;;;;;;17.05;4.20;;;;;;;;;;4976969;28;20066;-78
2024/01/23 00:10:22;;;;;;;13.70;4.00;;;;;;;;;;4976092;28;20054;-78
2024/01/23 00:12:49;;;;;;;14.13;4.05;;;;;;;;;;4976577;28;20059;-78
2024/01/23 00:15:16;;;;;;;15.38;4.13;;;;;;;;;;4976770;28;20050;-78
2024/01/23 00:17:43;;;;;;;17.90;4.43;;;;;;;;;;4976162;28;20062;-78
2024/01/23 00:20:10;;;;;;;16.45;4.30;;;;;;;;;;4976141;28;20054;-79
2024/01/23 00:22:39;;;;;;;15.95;4.22;;;;;;;;;;4976000;28;20058;-79
2024/01/23 00:25:06;;;;;;;16.42;3.80;;;;;;;;;;4976152;28;20061;-79
2024/01/23 00:27:32;;;;;;;16.60;4.45;;;;;;;;;;4976329;28;20042;-78
2024/01/23 00:29:59;;;;;;;14.05;4.07;;;;;;;;;;4975965;28;20420;-79
2024/01/23 00:32:30;;;;;;;13.65;3.85;;;;;;;;;;4976130;28;20057;-79
2024/01/23 00:34:57;;;;;;;16.52;3.75;;;;;;;;;;4976424;28;20051;-79
2024/01/23 00:37:24;;;;;;;18.70;4.40;;;;;;;;;;4976231;28;20057;-79
2024/01/23 00:39:54;;;;;;;18.63;4.38;;;;;;;;;;4976129;28;20412;-79
2024/01/23 00:42:21;;;;;;;13.75;4.05;;;;;;;;;;4976206;28;20066;-79
2024/01/23 00:44:48;;;;;;;14.55;3.97;;;;;;;;;;4975601;28;20050;-79
2024/01/23 00:47:14;;;;;;;18.08;4.93;;;;;;;;;;4976066;28;20055;-78
2024/01/23 00:49:41;;;;;;;13.57;3.47;;;;;;;;;;4976075;28;20055;-78
2024/01/23 00:52:08;;;;;;;10.07;3.38;;;;;;;;;;4976096;28;20081;-78
2024/01/23 00:54:35;;;;;;;12.07;4.13;;;;;;;;;;4975842;28;20105;-79
2024/01/23 00:57:05;;;;;;;11.13;3.70;;;;;;;;;;4975883;28;20506;-79
2024/01/23 00:59:31;;;;;;;13.82;4.38;;;;;;;;;;4975614;28;20062;-79
2024/01/23 01:01:58;;;;;;;14.20;3.53;;;;;;;;;;4975710;28;20473;-79
2024/01/23 01:04:25;;;;;;;14.23;4.70;;;;;;;;;;4975735;28;20056;-79
2024/01/23 01:06:52;;;;;;;17.85;4.65;;;;;;;;;;4975728;28;20053;-79
2024/01/23 01:09:19;;;;;;;17.30;4.47;;;;;;;;;;4975192;28;20519;-79
2024/01/23 01:11:45;;;;;;;16.15;4.35;;;;;;;;;;4975640;28;20061;-79
2024/01/23 01:14:14;;;;;;;17.05;4.50;;;;;;;;;;4975513;28;20051;-79
2024/01/23 01:16:41;;;;;;;19.23;3.88;;;;;;;;;;4975486;28;20369;-79
2024/01/23 01:19:08;;;;;;;17.23;4.20;;;;;;;;;;4975689;28;20055;-79
2024/01/23 01:21:34;;;;;;;17.13;4.18;;;;;;;;;;4980130;28;20058;-79
2024/01/23 01:24:01;;;;;;;14.30;4.00;;;;;;;;;;4994791;28;20064;-79
2024/01/23 01:26:28;;;;;;;17.10;4.22;;;;;;;;;;4994617;28;20050;-79
2024/01/23 01:28:55;;;;;;;18.67;4.70;;;;;;;;;;4994883;28;20061;-79
2024/01/23 01:31:23;;;;;;;18.30;4.45;;;;;;;;;;4994856;28;20050;-78
2024/01/23 01:33:50;;;;;;;13.93;3.75;;;;;;;;;;4994923;28;20058;-79
2024/01/23 01:36:17;;;;;;;17.98;4.53;;;;;;;;;;4994508;28;20402;-79
2024/01/23 01:38:44;;;;;;;15.55;4.78;;;;;;;;;;4994505;28;20066;-79
2024/01/23 01:41:10;;;;;;;12.07;4.25;;;;;;;;;;4994328;28;20069;-79
2024/01/23 01:43:37;;;;;;;14.68;4.38;;;;;;;;;;4994495;28;20483;-79
2024/01/23 01:46:10;;;;;;;18.88;4.03;;;;;;;;;;4994160;28;20069;-78
2024/01/23 01:48:39;;;;;;;19.58;4.50;;;;;;;;;;4994519;28;20061;-79
2024/01/23 01:51:05;;;;;;;23.33;4.93;;;;;;;;;;4994157;28;20415;-78
2024/01/23 01:53:33;;;;;;;16.38;4.40;;;;;;;;;;4993176;28;20054;-79
2024/01/23 01:55:59;;;;;;;17.63;3.58;;;;;;;;;;4993989;28;20050;-79
2024/01/23 01:58:28;;;;;;;17.05;4.28;;;;;;;;;;4993741;28;20047;-79
2024/01/23 02:00:55;;;;;;;15.48;3.58;;;;;;;;;;4994405;28;20058;-77
2024/01/23 02:03:22;;;;;;;14.43;3.70;;;;;;;;;;4993663;28;20061;-77
2024/01/23 02:05:50;;;;;;;12.48;3.25;;;;;;;;;;4993693;28;20058;-77
2024/01/23 02:08:17;;;;;;;20.88;4.45;;;;;;;;;;4994474;28;20050;-77
2024/01/23 02:10:44;;;;;;;12.68;3.60;;;;;;;;;;4994049;28;20054;-77
2024/01/23 02:13:11;;;;;;;12.75;4.03;;;;;;;;;;4992171;28;20496;-77
2024/01/23 02:15:38;;;;;;;13.23;3.85;;;;;;;;;;4987583;28;20061;-77
2024/01/23 02:18:05;;;;;;;14.98;4.13;;;;;;;;;;4974247;28;20054;-77
2024/01/23 02:20:31;;;;;;;16.08;3.85;;;;;;;;;;4973970;28;20059;-77
2024/01/23 02:23:00;;;;;;;20.20;3.97;;;;;;;;;;4974069;28;20413;-77
2024/01/23 02:25:28;;;;;;;17.98;4.53;;;;;;;;;;4974259;28;20091;-77
2024/01/23 02:27:55;;;;;;;14.13;3.85;;;;;;;;;;4974237;28;20055;-77
2024/01/23 02:30:22;;;;;;;12.85;3.72;;;;;;;;;;4974020;28;20412;-77
2024/01/23 02:32:48;;;;;;;13.60;3.60;;;;;;;;;;4974358;28;20054;-77
2024/01/23 02:35:15;;;;;;;13.10;4.03;;;;;;;;;;4974318;28;20613;-77
2024/01/23 02:37:42;;;;;;;14.75;4.35;;;;;;;;;;4973988;28;20047;-77
2024/01/23 02:40:09;;;;;;;14.40;3.40;;;;;;;;;;4974186;28;20519;-77
2024/01/23 02:42:38;;;;;;;15.98;4.22;;;;;;;;;;4974205;28;20058;-77
2024/01/23 02:45:05;;;;;;;16.25;4.60;;;;;;;;;;4974074;28;20058;-77
2024/01/23 02:47:31;;;;;;;18.10;4.93;;;;;;;;;;4974028;28;20051;-78
2024/01/23 02:49:59;;;;;;;20.05;4.32;;;;;;;;;;4974047;28;20057;-77
2024/01/23 02:52:31;;;;;;;16.27;4.00;;;;;;;;;;4974136;28;20065;-77
2024/01/23 02:54:58;;;;;;;13.68;3.70;;;;;;;;;;4973876;28;20061;-77
2024/01/23 02:57:25;;;;;;;18.67;4.53;;;;;;;;;;4973918;28;20051;-76
2024/01/23 02:59:53;;;;;;;14.15;3.83;;;;;;;;;;4973861;28;20081;-77
2024/01/23 03:02:20;;;;;;;14.88;4.15;;;;;;;;;;4973580;28;20050;-77
2024/01/23 03:04:46;;;;;;;17.02;4.40;;;;;;;;;;4975115;28;20055;-77
2024/01/23 03:07:13;;;;;;;13.80;3.63;;;;;;;;;;4977589;28;20050;-77
2024/01/23 03:09:40;;;;;;;15.70;3.97;;;;;;;;;;4977656;28;20055;-77
2024/01/23 03:12:14;;;;;;;12.85;3.38;;;;;;;;;;4977700;28;20062;-76
2024/01/23 03:14:41;;;;;;;19.25;4.68;;;;;;;;;;4977555;28;20058;-77
2024/01/23 03:17:09;;;;;;;13.25;3.78;;;;;;;;;;4978140;28;20051;-77
2024/01/23 03:19:36;;;;;;;10.93;3.22;;;;;;;;;;4977423;28;20054;-77
2024/01/23 03:22:03;;;;;;;15.05;3.80;;;;;;;;;;4985512;28;20055;-76
2024/01/23 03:24:30;;;;;;;13.85;4.40;;;;;;;;;;4996443;28;20447;-76
2024/01/23 03:26:57;;;;;;;14.85;3.65;;;;;;;;;;4996231;28;20058;-77
2024/01/23 03:29:24;;;;;;;12.60;3.70;;;;;;;;;;4996388;28;20393;-77
2024/01/23 03:31:50;;;;;;;16.52;3.38;;;;;;;;;;4996198;28;20054;-76
2024/01/23 03:34:19;;;;;;;13.85;4.53;;;;;;;;;;4996306;28;20069;-77
2024/01/23 03:36:46;;;;;;;16.13;4.35;;;;;;;;;;4996416;28;20058;-77
2024/01/23 03:39:13;;;;;;;15.02;3.95;;;;;;;;;;4996397;28;20053;-77
2024/01/23 03:41:40;;;;;;;13.10;3.72;;;;;;;;;;4996527;28;20400;-76
2024/01/23 03:44:07;;;;;;;17.50;3.95;;;;;;;;;;4996167;28;20050;-76
2024/01/23 03:46:34;;;;;;;15.25;3.88;;;;;;;;;;4996250;28;20057;-76
2024/01/23 03:49:00;;;;;;;16.02;3.90;;;;;;;;;;4996277;28;20062;-76
2024/01/23 03:51:28;;;;;;;13.20;3.17;;;;;;;;;;4996227;28;20369;-76
2024/01/23 03:53:55;;;;;;;14.60;3.42;;;;;;;;;;4995979;28;20069;-77
2024/01/23 03:56:22;;;;;;;12.02;3.03;;;;;;;;;;4996024;28;20058;-77
2024/01/23 03:58:49;;;;;;;15.52;4.03;;;;;;;;;;4995845;28;20049;-76
2024/01/23 04:01:16;;;;;;;11.98;3.63;;;;;;;;;;4995919;28;20054;-77
2024/01/23 04:03:43;;;;;;;14.18;3.20;;;;;;;;;;4996066;28;20058;-77
2024/01/23 04:06:09;;;;;;;12.13;3.42;;;;;;;;;;4995960;28;20492;-77
2024/01/23 04:08:38;;;;;;;17.70;3.55;;;;;;;;;;4996165;28;20057;-77
2024/01/23 04:11:05;;;;;;;14.35;3.53;;;;;;;;;;4995919;28;20057;-77
2024/01/23 04:13:31;;;;;;;13.55;4.47;;;;;;;;;;4996005;28;20058;-77
2024/01/23 04:15:58;;;;;;;16.48;3.60;;;;;;;;;;4994813;28;20058;-77
2024/01/23 04:18:25;;;;;;;15.13;3.50;;;;;;;;;;4995607;28;20527;-77
2024/01/23 04:20:52;;;;;;;13.05;3.00;;;;;;;;;;4995834;28;20077;-77
2024/01/23 04:23:19;;;;;;;12.15;3.35;;;;;;;;;;4994923;28;20412;-76
2024/01/23 04:25:47;;;;;;;17.83;4.10;;;;;;;;;;4995672;28;20057;-77
2024/01/23 04:28:14;;;;;;;18.63;3.85;;;;;;;;;;4995752;28;20047;-77
2024/01/23 04:30:41;;;;;;;12.23;3.45;;;;;;;;;;4995212;28;20046;-76
2024/01/23 04:33:08;;;;;;;16.13;3.30;;;;;;;;;;4995973;28;20476;-77
2024/01/23 04:35:35;;;;;;;16.38;3.83;;;;;;;;;;4995327;28;20061;-77
2024/01/23 04:38:02;;;;;;;17.48;3.70;;;;;;;;;;4995833;28;20051;-76
2024/01/23 04:40:28;;;;;;;13.38;3.42;;;;;;;;;;4994807;28;20050;-77
2024/01/23 04:42:57;;;;;;;13.50;3.72;;;;;;;;;;4995149;28;20054;-77
2024/01/23 04:45:24;;;;;;;11.70;3.45;;;;;;;;;;4994864;28;20069;-77
2024/01/23 04:47:50;;;;;;;14.75;3.75;;;;;;;;;;4994520;28;20047;-77
2024/01/23 04:50:17;;;;;;;13.38;4.00;;;;;;;;;;4995261;28;20415;-77
2024/01/23 04:52:44;;;;;;;11.85;4.25;;;;;;;;;;4995270;28;20061;-77
2024/01/23 04:55:11;;;;;;;13.70;3.45;;;;;;;;;;4995159;28;20065;-77
2024/01/23 04:57:38;;;;;;;11.65;2.83;;;;;;;;;;4994850;28;20062;-77
2024/01/23 05:00:07;;;;;;;12.13;3.78;;;;;;;;;;4994925;28;20407;-77
2024/01/23 05:02:35;;;;;;;17.65;4.28;;;;;;;;;;4994992;28;20066;-77
2024/01/23 05:05:03;;;;;;;12.45;3.78;;;;;;;;;;4995007;28;20050;-77
2024/01/23 05:07:29;;;;;;;17.60;4.50;;;;;;;;;;4994769;28;20073;-77
2024/01/23 05:09:56;;;;;;;15.70;4.20;;;;;;;;;;4994888;28;20054;-78
2024/01/23 05:12:23;;;;;;;19.30;3.90;;;;;;;;;;4994723;28;20412;-77
2024/01/23 05:14:50;;;;;;;14.93;3.63;;;;;;;;;;4994739;28;20060;-78
2024/01/23 05:17:18;;;;;;;16.25;3.58;;;;;;;;;;4994260;28;20062;-78
2024/01/23 05:19:44;;;;;;;14.52;3.53;;;;;;;;;;4994591;28;20057;-78
2024/01/23 05:22:11;;;;;;;14.55;3.60;;;;;;;;;;4994348;28;20054;-78
2024/01/23 05:24:38;;;;;;;16.85;4.18;;;;;;;;;;4994242;28;20049;-78
2024/01/23 05:27:05;;;;;;;13.85;4.00;;;;;;;;;;4993626;28;20065;-79
2024/01/23 05:29:32;;;;;;;15.43;4.10;;;;;;;;;;4994617;28;20058;-78
2024/01/23 05:31:59;;;;;;;14.32;3.70;;;;;;;;;;4980617;28;20400;-78
2024/01/23 05:34:27;;;;;;;16.27;4.18;;;;;;;;;;4975191;28;20062;-78
2024/01/23 05:36:54;;;;;;;15.52;3.63;;;;;;;;;;4974888;28;20489;-78
2024/01/23 05:39:21;;;;;;;14.63;3.60;;;;;;;;;;4974899;28;20061;-78
2024/01/23 05:41:48;;;;;;;15.40;3.55;;;;;;;;;;4974643;28;20420;-78
2024/01/23 05:44:15;;;;;;;17.88;4.22;;;;;;;;;;4974417;28;20062;-78
2024/01/23 05:46:41;;;;;;;15.80;3.70;;;;;;;;;;4974545;28;20058;-78
2024/01/23 05:49:08;;;;;;;19.30;4.32;;;;;;;;;;4974563;28;20408;-78
2024/01/23 05:51:36;;;;;;;15.98;4.43;;;;;;;;;;4974646;28;20062;-79
2024/01/23 05:54:03;;;;;;;17.10;4.45;;;;;;;;;;4974559;28;20065;-78
2024/01/23 05:56:29;;;;;;;15.45;4.70;;;;;;;;;;4974226;28;20062;-79
2024/01/23 05:58:56;;;;;;;14.40;4.03;;;;;;;;;;4974302;28;20482;-78
2024/01/23 06:01:23;;;;;;;17.00;4.40;;;;;;;;;;4974355;28;20057;-78
2024/01/23 06:03:50;;;;;;;15.60;4.85;;;;;;;;;;4973847;28;20065;-78
2024/01/23 06:06:19;;;;;;;16.00;4.75;;;;;;;;;;4973682;28;20054;-78
2024/01/23 06:08:47;;;;;;;17.48;5.35;;;;;;;;;;4973797;28;20051;-79
2024/01/23 06:11:14;;;;;;;16.63;4.30;;;;;;;;;;4974140;28;20058;-78
2024/01/23 06:13:40;;;;;;;12.68;3.75;;;;;;;;;;4974067;28;20055;-79
2024/01/23 06:16:07;;;;;;;21.05;4.30;;;;;;;;;;4973865;28;20404;-78
2024/01/23 06:18:35;;;;;;;17.65;4.82;;;;;;;;;;4973795;28;20504;-78
2024/01/23 06:21:02;;;;;;;14.07;3.78;;;;;;;;;;4973513;28;20055;-79
2024/01/23 06:23:29;;;;;;;14.00;4.05;;;;;;;;;;4973881;28;20449;-78
2024/01/23 06:25:57;;;;;;;18.73;4.97;;;;;;;;;;4973776;28;20062;-78
2024/01/23 06:28:24;;;;;;;11.65;4.22;;;;;;;;;;4973893;28;20055;-79
2024/01/23 06:30:51;;;;;;;14.52;4.35;;;;;;;;;;4973085;28;20054;-78
2024/01/23 06:33:18;;;;;;;15.80;4.03;;;;;;;;;;4973972;28;20408;-78
2024/01/23 06:35:45;;;;;;;17.02;4.40;;;;;;;;;;4973812;28;20184;-77
2024/01/23 06:38:14;;;;;;;20.15;4.45;;;;;;;;;;4972837;28;20058;-77
2024/01/23 06:40:41;;;;;;;14.65;4.25;;;;;;;;;;4973786;28;20492;-77
2024/01/23 06:43:14;;;;;;;13.82;4.43;;;;;;;;;;4973853;28;20055;-77
2024/01/23 06:45:41;;;;;;;16.88;3.92;;;;;;;;;;4973844;28;20492;-77
2024/01/23 06:48:07;;;;;;;17.63;4.55;;;;;;;;;;4973918;28;20389;-77
2024/01/23 06:50:34;;;;;;;17.73;4.10;;;;;;;;;;4973957;28;20061;-77
2024/01/23 06:53:01;;;;;;;13.85;3.40;;;;;;;;;;4973785;28;20055;-77
2024/01/23 06:55:28;;;;;;;13.23;3.80;;;;;;;;;;4973737;28;20058;-77
2024/01/23 06:57:55;;;;;;;19.73;4.00;;;;;;;;;;4973892;28;20059;-78
2024/01/23 07:00:23;;;;;;;14.32;3.53;;;;;;;;;;4973667;28;20054;-78
2024/01/23 07:02:50;;;;;;;19.60;4.18;;;;;;;;;;4973745;28;20050;-77
2024/01/23 07:05:17;;;;;;;14.82;4.68;;;;;;;;;;4973670;28;20051;-78
2024/01/23 07:07:43;;;;;;;15.63;4.10;;;;;;;;;;4973186;28;20055;-77
2024/01/23 07:10:10;;;;;;;18.02;4.13;;;;;;;;;;4973914;28;20055;-77
2024/01/23 07:12:37;;;;;;;14.45;4.00;;;;;;;;;;4973719;28;20058;-77
2024/01/23 07:15:04;;;;;;;17.45;4.57;;;;;;;;;;4973609;28;20066;-77
2024/01/23 07:17:33;;;;;;;17.48;3.88;;;;;;;;;;4973643;28;20059;-77
2024/01/23 07:20:00;;;;;;;18.85;3.90;;;;;;;;;;4973477;28;20508;-77
2024/01/23 07:22:27;;;;;;;17.63;4.18;;;;;;;;;;4984700;28;20065;-78
2024/01/23 07:24:54;;;;;;;15.23;4.32;;;;;;;;;;4992729;28;20058;-77
2024/01/23 07:27:21;;;;;;;14.85;4.03;;;;;;;;;;4993047;28;20054;-77
2024/01/23 07:29:47;;;;;;;12.95;3.85;;;;;;;;;;4992680;28;20057;-78
2024/01/23 07:32:14;;;;;;;15.18;3.90;;;;;;;;;;4992735;28;20065;-78
2024/01/23 07:34:42;;;;;;;18.90;4.07;;;;;;;;;;4992893;28;20062;-79
2024/01/23 07:37:09;;;;;;;16.55;3.40;;;;;;;;;;4992887;28;20388;-78
2024/01/23 07:39:36;;;;;;;13.35;4.00;;;;;;;;;;4993081;28;20050;-78
2024/01/23 07:42:03;;;;;;;15.80;3.70;;;;;;;;;;4992867;28;20054;-79
2024/01/23 07:44:32;;;;;;;15.43;3.85;;;;;;;;;;4992698;28;20058;-78
2024/01/23 07:46:59;;;;;;;13.70;3.78;;;;;;;;;;4992909;28;20479;-78
2024/01/23 07:49:26;;;;;;;16.67;4.03;;;;;;;;;;4992486;28;20054;-78
2024/01/23 07:51:54;;;;;;;14.68;4.03;;;;;;;;;;4995892;28;20399;-78
2024/01/23 07:54:21;;;;;;;17.48;4.13;;;;;;;;;;4995925;28;20054;-78
2024/01/23 07:56:50;;;;;;;21.00;4.90;;;;;;;;;;4996084;28;20050;-78
2024/01/23 07:59:17;;;;;;;15.73;4.50;;;;;;;;;;4995989;28;20407;-78
2024/01/23 08:01:43;;;;;;;14.93;4.65;;;;;;;;;;4996190;28;20061;-78
2024/01/23 08:04:11;;;;;;;18.13;4.28;;;;;;;;;;4996049;28;20074;-78
2024/01/23 08:06:38;;;;;;;13.85;4.25;;;;;;;;;;4995876;28;20054;-79
2024/01/23 08:09:06;;;;;;;22.52;4.80;;;;;;;;;;4995975;28;20055;-78
2024/01/23 08:11:33;;;;;;;16.73;4.22;;;;;;;;;;4995875;28;20070;-78
2024/01/23 08:13:59;;;;;;;16.20;4.05;;;;;;;;;;4995879;28;20062;-78
2024/01/23 08:16:26;;;;;;;15.80;4.32;;;;;;;;;;4995747;28;20432;-78
2024/01/23 08:18:54;;;;;;;13.88;3.88;;;;;;;;;;4995203;28;20054;-78
2024/01/23 08:21:21;;;;;;;14.48;4.15;;;;;;;;;;4995515;28;20047;-79
2024/01/23 08:23:47;;;;;;;17.25;4.60;;;;;;;;;;4995462;28;20061;-78
2024/01/23 08:26:16;;;;;;;17.20;4.82;;;;;;;;;;4995459;28;20408;-79
2024/01/23 08:28:42;;;;;;;18.10;4.95;;;;;;;;;;4995655;28;20058;-79
2024/01/23 08:31:09;;;;;;;15.02;4.43;;;;;;;;;;4995415;28;20062;-79
2024/01/23 08:33:36;;;;;;;13.70;4.00;;;;;;;;;;4995207;28;20062;-78
2024/01/23 08:36:03;;;;;;;16.95;4.28;;;;;;;;;;4995300;28;20065;-79
2024/01/23 08:38:30;;;;;;;17.50;4.18;;;;;;;;;;4995241;28;20065;-78
2024/01/23 08:40:57;;;;;;;17.33;4.68;;;;;;;;;;4995499;28;20050;-79
2024/01/23 08:43:25;;;;;;;17.35;5.03;;;;;;;;;;4995531;28;20050;-78
2024/01/23 08:45:52;;;;;;;15.85;4.13;;;;;;;;;;4995286;28;20062;-78
2024/01/23 08:48:22;;;;;;;16.83;3.88;;;;;;;;;;4994688;28;20054;-78
2024/01/23 08:50:50;;;;;;;13.90;4.18;;;;;;;;;;4995395;28;20057;-78
2024/01/23 08:53:17;;;;;;;14.73;4.03;;;;;;;;;;4995307;28;20058;-79
2024/01/23 08:55:44;;;;;;;14.98;4.28;;;;;;;;;;4994787;28;20054;-79
2024/01/23 08:58:11;;;;;;;16.38;4.57;;;;;;;;;;4994972;28;20050;-79
2024/01/23 09:00:40;;;;;;;16.80;5.05;;;;;;;;;;4995009;28;20054;-78
2024/01/23 09:03:06;;;;;;;19.08;4.30;;;;;;;;;;4995344;28;20058;-79
2024/01/23 09:05:33;;;;;;;16.05;4.85;;;;;;;;;;4995168;28;20065;-79
2024/01/23 09:08:01;;;;;;;15.50;4.30;;;;;;;;;;4995045;28;20061;-79
2024/01/23 09:10:28;;;;;;;15.90;4.47;;;;;;;;;;4994782;28;20047;-79
2024/01/23 09:12:55;;;;;;;16.10;4.60;;;;;;;;;;4995372;28;20057;-79
2024/01/23 09:15:22;;;;;;;14.95;4.55;;;;;;;;;;4994845;28;20069;-77
2024/01/23 09:17:50;;;;;;;14.00;4.03;;;;;;;;;;4994790;28;20054;-77
2024/01/23 09:20:17;;;;;;;16.10;3.83;;;;;;;;;;4994478;28;20102;-78
2024/01/23 09:22:44;;;;;;;14.90;3.95;;;;;;;;;;4993814;28;20061;-78
2024/01/23 09:25:10;;;;;;;15.75;4.50;;;;;;;;;;4994489;28;20050;-78
2024/01/23 09:27:37;;;;;;;14.15;4.43;;;;;;;;;;4994697;28;20054;-78
2024/01/23 09:30:04;;;;;;;11.57;3.85;;;;;;;;;;4994115;28;20492;-78
2024/01/23 09:32:31;;;;;;;16.80;4.60;;;;;;;;;;4975947;28;20051;-78
2024/01/23 09:35:00;;;;;;;16.90;4.53;;;;;;;;;;4974778;28;20055;-78
2024/01/23 09:37:27;;;;;;;14.93;4.10;;;;;;;;;;4974665;28;20070;-78
2024/01/23 09:39:54;;;;;;;16.20;4.47;;;;;;;;;;4974986;28;20062;-78
2024/01/23 09:42:23;;;;;;;16.75;5.40;;;;;;;;;;4974781;28;20062;-78
2024/01/23 09:44:51;;;;;;;16.73;5.05;;;;;;;;;;4974644;28;20059;-78
2024/01/23 09:47:18;;;;;;;14.35;4.75;;;;;;;;;;4974573;28;20066;-78
2024/01/23 09:49:45;;;;;;;14.63;4.85;;;;;;;;;;4974986;28;20055;-78
2024/01/23 09:52:13;;;;;;;15.63;3.95;;;;;;;;;;4975057;28;20047;-78
2024/01/23 09:54:40;;;;;;;15.38;4.68;;;;;;;;;;4974542;28;20070;-78
2024/01/23 09:57:07;;;;;;;14.73;4.10;;;;;;;;;;4974787;28;20055;-78
2024/01/23 09:59:34;;;;;;;14.25;4.35;;;;;;;;;;4974106;28;20055;-79
2024/01/23 10:02:01;;;;;;;13.25;4.15;;;;;;;;;;4973952;28;20047;-79
2024/01/23 10:04:29;;;;;;;13.43;4.90;;;;;;;;;;4974129;28;20055;-78
2024/01/23 10:06:56;;;;;;;13.15;4.75;;;;;;;;;;4973800;28;20409;-78
2024/01/23 10:09:24;;;;;;;12.68;4.22;;;;;;;;;;4974117;28;20055;-78
2024/01/23 10:11:51;;;;;;;14.98;3.92;;;;;;;;;;4973797;28;20051;-78
2024/01/23 10:14:18;;;;;;;14.55;4.70;;;;;;;;;;4973221;28;20059;-78
2024/01/23 10:16:47;;;;;;;13.70;3.75;;;;;;;;;;4973950;28;20058;-77
2024/01/23 10:19:14;;;;;;;;;;;;;;;;;;4974767;28;20050;-78
2024/01/23 10:21:41;;;;;;;14.73;4.30;;;;;;;;;;4973605;28;20343;-77
2024/01/23 10:24:08;;;;;;;14.18;4.20;;;;;;;;;;4973931;28;20125;-78
2024/01/23 10:26:37;;;;;;;19.67;5.05;;;;;;;;;;4973431;28;20051;-77
2024/01/23 10:29:04;;;;;;;12.88;4.30;;;;;;;;;;4973969;28;20050;-78
2024/01/23 10:31:30;;;;;;;15.52;4.43;;;;;;;;;;4973837;28;20054;-78
2024/01/23 10:33:57;;;;;;;14.48;4.85;;;;;;;;;;4974070;28;20051;-77
2024/01/23 10:36:25;;;;;;;14.07;4.40;;;;;;;;;;4973843;28;20058;-78
2024/01/23 10:38:53;;;;;;;13.25;4.20;;;;;;;;;;4973541;28;20420;-77
2024/01/23 10:41:20;;;;;;;15.35;4.32;;;;;;;;;;4973975;28;20491;-77
2024/01/23 10:43:48;;;;;;;16.55;4.70;;;;;;;;;;4973769;28;20059;-77
2024/01/23 10:46:15;;;;;;;19.73;5.18;;;;;;;;;;4973692;28;20063;-77
2024/01/23 10:48:42;;;;;;;14.50;5.03;;;;;;;;;;4973655;28;20062;-77
2024/01/23 10:51:11;;;;;;;13.02;4.32;;;;;;;;;;4973645;28;20412;-77
2024/01/23 10:53:43;;;;;;;11.60;4.15;;;;;;;;;;4973942;28;20051;-77
2024/01/23 10:56:10;;;;;;;12.00;4.28;;;;;;;;;;4973319;28;20059;-77
2024/01/23 10:58:40;;;;;;;16.25;4.60;;;;;;;;;;4973252;28;20066;-78
2024/01/23 11:01:11;;;;;;;17.45;4.68;;;;;;;;;;4973279;28;20054;-78
2024/01/23 11:03:39;;;;;;;18.05;4.53;;;;;;;;;;4973138;28;20515;-77
2024/01/23 11:06:08;;;;;;;12.70;4.00;;;;;;;;;;4973608;28;20062;-77
2024/01/23 11:08:35;;;;;;;;;;;;;;;;;;4973882;28;20516;-78
2024/01/23 11:11:07;;;;;;;15.32;4.70;;;;;;;;;;4973861;28;19922;-77
2024/01/23 11:13:38;;;;;;;14.85;4.28;;;;;;;;;;4973212;28;20065;-78
2024/01/23 11:16:06;;;;;;;15.10;4.22;;;;;;;;;;4973156;28;20054;-77
2024/01/23 11:18:35;;;;;;;14.82;4.35;;;;;;;;;;4973588;28;20535;-78
2024/01/23 11:21:14;;;;;;;15.97;4.20;;;;;;;;;;4972952;28;20404;-77
2024/01/23 11:23:42;;;;;;;10.95;4.00;;;;;;;;;;4973089;28;20058;-77
2024/01/23 11:26:15;;;;;;;15.07;3.80;;;;;;;;;;4975160;28;20135;-78
2024/01/23 11:28:43;;;;;;;14.38;4.95;;;;;;;;;;4976995;28;20054;-78
2024/01/23 11:31:13;;;;;;;15.48;4.65;;;;;;;;;;4976401;28;20050;-77
2024/01/23 11:33:41;;;;;;;14.00;4.45;;;;;;;;;;4975568;28;20065;-78
2024/01/23 11:36:08;;;;;;;15.65;4.45;;;;;;;;;;4976717;28;20058;-77
2024/01/23 11:38:39;;;;;;;14.70;4.80;;;;;;;;;;4976705;28;20058;-77
2024/01/23 11:41:12;;;;;;;12.57;4.35;;;;;;;;;;4976287;28;20055;-77
2024/01/23 11:43:39;;;;;;;15.30;4.25;;;;;;;;;;4976938;28;20047;-77
2024/01/23 11:46:11;;;;;;;11.20;3.95;;;;;;;;;;4976581;28;20058;-77
2024/01/23 11:48:38;;;;;;;13.68;4.30;;;;;;;;;;4976471;28;20080;-77
2024/01/23 11:51:06;;;;;;;14.13;5.00;;;;;;;;;;4976622;28;20047;-78
2024/01/23 11:53:34;;;;;;;13.27;4.50;;;;;;;;;;4975970;28;20070;-77
2024/01/23 11:56:01;;;;;;;15.48;4.88;;;;;;;;;;4976895;28;20055;-78
2024/01/23 11:58:28;;;;;;;14.50;4.63;;;;;;;;;;4976635;28;20066;-77
2024/01/23 12:00:55;;;;;;;14.88;5.28;;;;;;;;;;4976463;28;20062;-78
2024/01/23 12:03:22;;;;;;;15.30;4.35;;;;;;;;;;4976514;28;20059;-77
2024/01/23 12:05:51;;;;;;;18.08;4.97;;;;;;;;;;4976263;28;20408;-77
2024/01/23 12:08:21;;;;;;;13.60;4.83;;;;;;;;;;4976745;28;20065;-78
2024/01/23 12:10:48;;;;;;;15.45;4.43;;;;;;;;;;4976245;28;20061;-78
2024/01/23 12:13:15;;;;;;;14.60;4.50;;;;;;;;;;4976197;28;20051;-77
2024/01/23 12:15:41;;;;;;;18.05;4.95;;;;;;;;;;4976413;28;20066;-77
2024/01/23 12:18:13;;;;;;;15.20;3.97;;;;;;;;;;4976476;28;20066;-77
2024/01/23 12:20:42;;;;;;;15.80;4.80;;;;;;;;;;4976353;28;20062;-77
2024/01/23 12:23:09;;;;;;;14.43;4.57;;;;;;;;;;4992819;28;20058;-77
2024/01/23 12:25:38;;;;;;;12.60;4.35;;;;;;;;;;4995609;28;20057;-77
2024/01/23 12:28:05;;;;;;;15.10;4.75;;;;;;;;;;4996112;28;20077;-78
2024/01/23 12:30:32;;;;;;;13.73;4.50;;;;;;;;;;4993235;28;20134;-77
2024/01/23 12:32:59;;;;;;;15.10;4.72;;;;;;;;;;4976208;28;20054;-78
2024/01/23 12:35:25;;;;;;;14.45;4.65;;;;;;;;;;4975861;28;20054;-77
2024/01/23 12:37:52;;;;;;;16.25;4.63;;;;;;;;;;4975785;28;20511;-78
2024/01/23 12:40:20;;;;;;;10.20;3.42;;;;;;;;;;4976111;28;20055;-78
2024/01/23 12:42:49;;;;;;;13.85;4.30;;;;;;;;;;4976005;28;20051;-77
2024/01/23 12:45:16;;;;;;;16.67;4.95;;;;;;;;;;4975740;28;20074;-78
2024/01/23 12:47:44;;;;;;;15.25;4.53;;;;;;;;;;4975753;28;20058;-77
2024/01/23 12:50:15;;;;;;;12.55;4.05;;;;;;;;;;4975793;28;20507;-77
2024/01/23 12:52:41;;;;;;;13.85;3.58;;;;;;;;;;4975857;28;20047;-77
2024/01/23 12:55:09;;;;;;;16.63;4.63;;;;;;;;;;4975782;28;20054;-77
2024/01/23 12:57:36;;;;;;;13.90;4.40;;;;;;;;;;4975380;28;20058;-77
2024/01/23 13:00:05;;;;;;;11.95;3.60;;;;;;;;;;4975555;28;20065;-77
2024/01/23 13:02:32;;;;;;;10.32;3.72;;;;;;;;;;4975461;28;20054;-77
2024/01/23 13:04:59;;;;;;;13.77;4.07;;;;;;;;;;4975506;28;20069;-77
2024/01/23 13:07:26;;;;;;;13.07;5.15;;;;;;;;;;4975445;28;20070;-78
2024/01/23 13:09:52;;;;;;;17.60;4.82;;;;;;;;;;4975329;28;20381;-77
2024/01/23 13:12:19;;;;;;;13.15;4.53;;;;;;;;;;4975437;28;20047;-77
2024/01/23 13:14:46;;;;;;;18.75;5.18;;;;;;;;;;4975115;28;20057;-78
2024/01/23 13:17:14;;;;;;;16.35;4.75;;;;;;;;;;4975125;28;20058;-79
2024/01/23 13:19:41;;;;;;;15.88;4.57;;;;;;;;;;4975207;28;20393;-78
2024/01/23 13:22:08;;;;;;;11.40;4.10;;;;;;;;;;4974496;28;20397;-78
2024/01/23 13:24:35;;;;;;;17.33;4.75;;;;;;;;;;4974749;28;20468;-77
2024/01/23 13:27:06;;;;;;;16.75;4.65;;;;;;;;;;4975209;28;20065;-78
2024/01/23 13:29:33;;;;;;;16.77;4.68;;;;;;;;;;4974899;28;20058;-78
2024/01/23 13:32:00;;;;;;;16.95;4.63;;;;;;;;;;4974721;28;20050;-78
2024/01/23 13:34:29;;;;;;;15.00;4.55;;;;;;;;;;4974741;28;20058;-78
2024/01/23 13:36:56;;;;;;;17.45;4.75;;;;;;;;;;4974937;28;20051;-78
2024/01/23 13:39:22;;;;;;;14.07;4.43;;;;;;;;;;4975008;28;20065;-77
2024/01/23 13:41:49;;;;;;;20.27;6.00;;;;;;;;;;4974566;28;20047;-77
2024/01/23 13:44:16;;;;;;;17.67;4.95;;;;;;;;;;4974511;28;20051;-78
2024/01/23 13:46:43;;;;;;;18.70;5.10;;;;;;;;;;4974427;28;20050;-78
2024/01/23 13:49:10;;;;;;;15.68;4.60;;;;;;;;;;4973678;28;20051;-77
2024/01/23 13:51:40;;;;;;;11.68;4.60;;;;;;;;;;4974401;28;20059;-77
2024/01/23 13:54:07;;;;;;;12.07;4.10;;;;;;;;;;4974464;28;20366;-77
2024/01/23 13:56:34;;;;;;;16.10;4.20;;;;;;;;;;4974771;28;20054;-77
2024/01/23 13:59:04;;;;;;;15.55;3.95;;;;;;;;;;4974625;28;20058;-77
2024/01/23 14:01:31;;;;;;;15.75;4.22;;;;;;;;;;4974270;28;20058;-77
2024/01/23 14:03:59;;;;;;;20.30;4.55;;;;;;;;;;4974347;28;20054;-77
2024/01/23 14:06:26;;;;;;;13.57;3.92;;;;;;;;;;4974083;28;20070;-77
2024/01/23 14:08:54;;;;;;;15.07;4.75;;;;;;;;;;4974481;28;20420;-78
2024/01/23 14:11:21;;;;;;;15.95;4.70;;;;;;;;;;4974121;28;20054;-78
2024/01/23 14:13:48;;;;;;;17.20;4.55;;;;;;;;;;4974133;28;20058;-77
2024/01/23 14:16:15;;;;;;;17.60;4.82;;;;;;;;;;4974054;28;20059;-77
2024/01/23 14:18:42;;;;;;;18.00;5.35;;;;;;;;;;4974147;28;20059;-77
2024/01/23 14:21:11;;;;;;;14.77;4.28;;;;;;;;;;4973520;28;20057;-78
2024/01/23 14:23:37;;;;;;;18.00;5.30;;;;;;;;;;4974207;28;20046;-77
2024/01/23 14:26:06;;;;;;;24.95;5.30;;;;;;;;;;4973983;28;20063;-77
2024/01/23 14:28:33;;;;;;;20.23;4.78;;;;;;;;;;4974427;28;20416;-78
2024/01/23 14:31:00;;;;;;;14.88;4.53;;;;;;;;;;4973989;28;20062;-78